createdAt,value
2023-01-21T00:01:18.965Z,5.05
2023-01-21T00:03:46.463Z,4.75
2023-01-21T00:06:17.695Z,4.53
2023-01-21T00:08:48.159Z,4.60
2023-01-21T00:11:16.044Z,4.35
2023-01-21T00:13:45.840Z,4.63
2023-01-21T00:16:17.770Z,4.72
2023-01-21T00:18:48.233Z,5.30
2023-01-21T00:21:17.523Z,4.88
2023-01-21T00:23:47.901Z,4.43
2023-01-21T00:26:15.473Z,4.35
2023-01-21T00:28:46.617Z,4.47
2023-01-21T00:31:13.999Z,4.63
2023-01-21T00:33:42.480Z,4.43
2023-01-21T00:36:18.326Z,4.35
2023-01-21T00:38:48.935Z,4.38
2023-01-21T00:41:17.408Z,4.55
2023-01-21T00:43:44.587Z,4.47
2023-01-21T00:46:12.131Z,4.65
2023-01-21T00:48:41.954Z,4.03
2023-01-21T00:51:12.274Z,4.85
2023-01-21T00:53:43.732Z,4.47
2023-01-21T00:56:13.286Z,4.70
2023-01-21T00:58:43.317Z,4.35
2023-01-21T01:01:20.751Z,4.55
2023-01-21T01:03:51.500Z,4.32
2023-01-21T01:06:24.266Z,4.53
2023-01-21T01:08:58.442Z,3.83
2023-01-21T01:11:28.024Z,4.72
2023-01-21T01:13:59.077Z,4.43
2023-01-21T01:16:26.817Z,4.43
2023-01-21T01:18:54.210Z,4.40
2023-01-21T01:21:22.201Z,3.92
2023-01-21T01:23:54.760Z,4.60
2023-01-21T01:26:24.385Z,3.90
2023-01-21T01:28:52.544Z,4.20
2023-01-21T01:31:23.164Z,4.95
2023-01-21T01:33:54.067Z,4.47
2023-01-21T01:36:25.030Z,4.15
2023-01-21T01:38:54.019Z,4.22
2023-01-21T01:41:30.089Z,4.50
2023-01-21T01:44:01.038Z,4.18
2023-01-21T01:46:34.076Z,4.40
2023-01-21T01:51:44.774Z,4.30
2023-01-21T01:54:18.217Z,4.57
2023-01-21T01:56:50.641Z,4.47
2023-01-21T01:59:19.306Z,5.45
2023-01-21T02:01:46.589Z,5.00
2023-01-21T02:04:20.133Z,4.40
2023-01-21T02:09:17.431Z,4.30
2023-01-21T02:11:44.802Z,3.92
2023-01-21T02:14:12.136Z,4.75
2023-01-21T02:16:46.244Z,4.18
2023-01-21T02:19:28.630Z,4.40
2023-01-21T02:22:13.340Z,4.75
2023-01-21T02:24:58.565Z,4.90
2023-01-21T02:27:52.880Z,4.70
2023-01-21T02:30:50.694Z,4.32
2023-01-21T02:33:20.691Z,3.97
2023-01-21T02:36:05.009Z,4.00
2023-01-21T02:38:54.913Z,4.63
2023-01-21T02:41:35.670Z,4.57
2023-01-21T02:44:32.216Z,4.40
2023-01-21T02:47:10.703Z,4.38
2023-01-21T02:49:42.207Z,4.38
2023-01-21T02:52:18.107Z,3.88
2023-01-21T02:54:54.524Z,4.15
2023-01-21T02:57:33.537Z,4.00
2023-01-21T03:00:09.808Z,4.50
2023-01-21T03:03:05.333Z,4.32
2023-01-21T03:06:13.987Z,4.35
2023-01-21T03:08:53.932Z,4.10
2023-01-21T03:11:22.847Z,4.68
2023-01-21T03:14:35.367Z,4.32
2023-01-21T03:17:17.252Z,3.90
2023-01-21T03:19:52.850Z,4.13
2023-01-21T03:22:25.454Z,4.47
2023-01-21T03:24:56.263Z,3.83
2023-01-21T03:27:28.065Z,4.03
2023-01-21T03:30:04.545Z,4.07
2023-01-21T03:32:34.563Z,4.43
2023-01-21T03:35:05.468Z,4.57
2023-01-21T03:37:43.579Z,3.95
2023-01-21T03:40:30.754Z,4.35
2023-01-21T03:42:58.020Z,4.07
2023-01-21T03:45:42.962Z,4.20
2023-01-21T03:48:31.359Z,3.75
2023-01-21T03:51:07.335Z,4.30
2023-01-21T03:53:37.591Z,4.15
2023-01-21T03:56:05.074Z,4.13
2023-01-21T03:58:32.408Z,3.65
2023-01-21T04:01:02.211Z,4.22
2023-01-21T04:03:29.391Z,3.97
2023-01-21T04:05:56.547Z,4.35
2023-01-21T04:08:23.992Z,4.72
2023-01-21T04:10:51.175Z,4.82
2023-01-21T04:13:18.466Z,4.45
2023-01-21T04:15:45.664Z,4.32
2023-01-21T04:18:14.485Z,3.80
2023-01-21T04:20:41.699Z,4.10
2023-01-21T04:23:11.272Z,3.85
2023-01-21T04:25:38.486Z,3.65
2023-01-21T04:28:08.077Z,3.42
2023-01-21T04:30:40.200Z,4.13
2023-01-21T04:33:07.307Z,3.78
2023-01-21T04:35:37.919Z,4.30
2023-01-21T04:38:06.643Z,3.75
2023-01-21T04:40:35.898Z,4.00
2023-01-21T04:43:07.819Z,3.45
2023-01-21T04:45:35.150Z,3.88
2023-01-21T04:48:05.007Z,3.60
2023-01-21T04:50:32.190Z,3.55
2023-01-21T04:53:03.735Z,3.35
2023-01-21T04:55:31.052Z,3.40
2023-01-21T04:58:23.062Z,3.35
2023-01-21T05:00:53.912Z,4.03
2023-01-21T05:03:23.609Z,5.55
2023-01-21T05:05:51.728Z,4.30
2023-01-21T05:08:18.970Z,4.45
2023-01-21T05:10:46.132Z,3.58
2023-01-21T05:13:13.430Z,3.67
2023-01-21T05:15:40.768Z,4.13
2023-01-21T05:18:09.472Z,3.95
2023-01-21T05:20:36.579Z,3.55
2023-01-21T05:23:04.169Z,3.55
2023-01-21T05:25:31.528Z,4.15
2023-01-21T05:28:00.784Z,4.10
2023-01-21T05:30:30.706Z,3.75
2023-01-21T05:33:00.043Z,3.95
2023-01-21T05:35:29.679Z,3.50
2023-01-21T05:38:00.160Z,3.92
2023-01-21T05:40:27.631Z,4.10
2023-01-21T05:42:57.183Z,3.75
2023-01-21T05:45:24.582Z,4.40
2023-01-21T05:47:54.295Z,3.78
2023-01-21T05:50:23.696Z,3.63
2023-01-21T05:52:51.178Z,3.58
2023-01-21T05:55:19.179Z,4.13
2023-01-21T05:57:46.373Z,3.67
2023-01-21T06:00:17.972Z,3.70
2023-01-21T06:02:47.379Z,4.25
2023-01-21T06:05:17.064Z,3.38
2023-01-21T06:07:44.324Z,4.00
2023-01-21T06:10:11.785Z,3.85
2023-01-21T06:12:43.788Z,4.05
2023-01-21T06:15:11.403Z,4.05
2023-01-21T06:17:42.154Z,3.45
2023-01-21T06:20:10.269Z,3.85
2023-01-21T06:22:39.519Z,4.70
2023-01-21T06:25:07.168Z,4.72
2023-01-21T06:27:37.177Z,5.13
2023-01-21T06:30:10.888Z,4.22
2023-01-21T06:32:40.662Z,4.32
2023-01-21T06:35:09.649Z,4.03
2023-01-21T06:37:37.035Z,4.35
2023-01-21T06:40:05.172Z,4.18
2023-01-21T06:42:35.063Z,3.95
2023-01-21T06:45:02.437Z,3.85
2023-01-21T06:47:32.054Z,3.85
2023-01-21T06:49:59.363Z,3.92
2023-01-21T06:52:26.625Z,3.92
2023-01-21T06:54:56.463Z,3.90
2023-01-21T06:57:24.819Z,4.00
2023-01-21T06:59:54.601Z,4.13
2023-01-21T07:02:24.761Z,4.20
2023-01-21T07:04:57.450Z,3.88
2023-01-21T07:07:28.838Z,3.60
2023-01-21T07:09:56.179Z,4.43
2023-01-21T07:12:26.535Z,3.80
2023-01-21T07:14:53.816Z,3.50
2023-01-21T07:17:21.700Z,3.72
2023-01-21T07:19:49.098Z,3.72
2023-01-21T07:22:18.793Z,3.30
2023-01-21T07:24:46.340Z,3.50
2023-01-21T07:27:13.493Z,3.90
2023-01-21T07:29:41.098Z,3.28
2023-01-21T07:32:08.236Z,4.07
2023-01-21T07:34:35.595Z,3.53
2023-01-21T07:37:04.991Z,3.53
2023-01-21T07:39:32.345Z,3.90
2023-01-21T07:41:59.783Z,3.70
2023-01-21T07:44:29.394Z,3.95
2023-01-21T07:46:57.439Z,3.42
2023-01-21T07:49:24.753Z,3.55
2023-01-21T07:51:57.504Z,4.32
2023-01-21T07:54:24.990Z,4.50
2023-01-21T07:56:52.176Z,4.00
2023-01-21T07:59:21.512Z,3.88
2023-01-21T08:01:48.841Z,3.67
2023-01-21T08:04:16.166Z,4.38
2023-01-21T08:06:43.415Z,3.58
2023-01-21T08:09:10.856Z,4.25
2023-01-21T08:11:38.050Z,4.07
2023-01-21T08:14:05.773Z,3.95
2023-01-21T08:16:33.016Z,3.53
2023-01-21T08:19:00.450Z,3.75
2023-01-21T08:21:29.812Z,4.53
2023-01-21T08:23:57.036Z,3.60
2023-01-21T08:26:28.821Z,3.53
2023-01-21T08:28:56.303Z,3.55
2023-01-21T08:31:23.668Z,3.72
2023-01-21T08:33:50.818Z,3.67
2023-01-21T08:36:18.664Z,3.70
2023-01-21T08:38:48.406Z,3.53
2023-01-21T08:41:16.588Z,3.50
2023-01-21T08:43:43.884Z,3.13
2023-01-21T08:46:10.986Z,3.38
2023-01-21T08:48:39.256Z,3.20
2023-01-21T08:51:06.571Z,3.53
2023-01-21T08:53:37.082Z,3.58
2023-01-21T08:56:05.061Z,3.65
2023-01-21T08:58:33.300Z,3.30
2023-01-21T09:01:07.907Z,3.63
2023-01-21T09:03:35.157Z,3.40
2023-01-21T09:06:06.960Z,3.08
2023-01-21T09:08:36.392Z,3.42
2023-01-21T09:11:04.431Z,3.58
2023-01-21T09:13:37.303Z,3.60
2023-01-21T09:16:19.131Z,3.10
2023-01-21T09:18:48.930Z,3.33
2023-01-21T09:21:19.006Z,3.30
2023-01-21T09:23:46.189Z,3.75
2023-01-21T09:26:18.716Z,3.00
2023-01-21T09:28:52.699Z,3.13
2023-01-21T09:31:25.800Z,3.40
2023-01-21T09:33:57.313Z,4.15
2023-01-21T09:36:28.185Z,3.05
2023-01-21T09:38:56.881Z,3.25
2023-01-21T09:41:38.592Z,3.40
2023-01-21T09:44:33.472Z,3.30
2023-01-21T09:47:18.280Z,3.67
2023-01-21T09:50:09.805Z,4.55
2023-01-21T09:52:44.407Z,3.45
2023-01-21T09:55:28.583Z,3.40
2023-01-21T09:58:15.271Z,3.08
2023-01-21T10:00:45.444Z,3.38
2023-01-21T10:03:21.499Z,3.33
2023-01-21T10:06:05.711Z,3.30
2023-01-21T10:08:58.880Z,3.28
2023-01-21T10:11:26.215Z,3.15
2023-01-21T10:14:31.131Z,3.05
2023-01-21T10:17:26.558Z,4.18
2023-01-21T10:20:03.375Z,3.38
2023-01-21T10:22:31.046Z,3.53
2023-01-21T10:25:13.333Z,3.05
2023-01-21T10:27:44.503Z,4.35
2023-01-21T10:30:28.219Z,3.70
2023-01-21T10:32:56.768Z,3.22
2023-01-21T10:35:38.839Z,3.95
2023-01-21T10:38:27.601Z,4.38
2023-01-21T10:41:31.843Z,3.53
2023-01-21T10:44:25.728Z,2.90
2023-01-21T10:47:06.625Z,3.38
2023-01-21T10:49:48.555Z,4.65
2023-01-21T10:52:25.955Z,3.15
2023-01-21T10:55:00.206Z,3.25
2023-01-21T10:57:53.612Z,3.45
2023-01-21T11:00:38.147Z,3.15
2023-01-21T11:03:46.610Z,3.25
2023-01-21T11:06:18.033Z,3.50
2023-01-21T11:08:49.480Z,3.17
2023-01-21T11:11:28.583Z,3.35
2023-01-21T11:13:56.449Z,3.50
2023-01-21T11:16:39.134Z,3.20
2023-01-21T11:19:07.437Z,3.42
2023-01-21T11:21:34.773Z,3.10
2023-01-21T11:24:24.931Z,3.17
2023-01-21T11:26:57.016Z,3.00
2023-01-21T11:29:40.138Z,2.95
2023-01-21T11:32:16.056Z,2.90
2023-01-21T11:34:48.934Z,3.72
2023-01-21T11:37:27.212Z,2.75
2023-01-21T11:40:00.929Z,3.38
2023-01-21T11:42:28.091Z,3.20
2023-01-21T11:44:58.411Z,3.95
2023-01-21T11:47:38.441Z,3.50
2023-01-21T11:50:50.704Z,3.28
2023-01-21T11:53:19.187Z,3.30
2023-01-21T11:55:51.423Z,3.13
2023-01-21T11:58:23.682Z,3.20
2023-01-21T12:00:55.647Z,3.00
2023-01-21T12:03:29.892Z,3.63
2023-01-21T12:05:57.197Z,3.58
2023-01-21T12:08:28.685Z,3.35
2023-01-21T12:11:01.962Z,3.65
2023-01-21T12:13:29.058Z,3.72
2023-01-21T12:16:18.015Z,4.22
2023-01-21T12:19:07.665Z,3.60
2023-01-21T12:22:00.760Z,3.50
2023-01-21T12:24:40.352Z,3.60
2023-01-21T12:27:42.393Z,4.22
2023-01-21T12:30:39.283Z,4.47
2023-01-21T12:33:16.455Z,5.72
2023-01-21T12:35:57.304Z,4.88
2023-01-21T12:38:42.321Z,6.63
2023-01-21T12:41:18.449Z,5.55
2023-01-21T12:43:50.889Z,6.32
2023-01-21T12:47:10.021Z,6.22
2023-01-21T12:50:03.597Z,6.65
2023-01-21T12:52:49.760Z,5.85
2023-01-21T12:55:24.270Z,5.70
2023-01-21T12:58:13.138Z,5.90
2023-01-21T13:00:47.854Z,5.53
2023-01-21T13:03:34.754Z,5.53
2023-01-21T13:06:29.519Z,6.50
2023-01-21T13:09:16.882Z,5.15
2023-01-21T13:11:51.736Z,5.72
2023-01-21T13:14:37.441Z,6.30
2023-01-21T13:17:17.004Z,5.80
2023-01-21T13:19:44.189Z,5.75
2023-01-21T13:22:29.697Z,6.47
2023-01-21T13:25:12.395Z,5.85
2023-01-21T13:28:00.178Z,5.57
2023-01-21T13:30:42.475Z,5.82
2023-01-21T13:33:15.261Z,5.90
2023-01-21T13:36:02.970Z,5.25
2023-01-21T13:38:44.396Z,6.38
2023-01-21T13:41:11.811Z,5.43
2023-01-21T13:43:57.423Z,5.30
2023-01-21T13:46:43.579Z,7.68
2023-01-21T13:49:34.089Z,7.90
2023-01-21T13:52:39.258Z,8.40
2023-01-21T13:55:31.990Z,8.00
2023-01-21T13:58:03.027Z,7.55
2023-01-21T14:00:45.584Z,7.20
2023-01-21T14:03:32.326Z,6.85
2023-01-21T14:06:18.885Z,6.85
2023-01-21T14:09:04.061Z,7.35
2023-01-21T14:11:37.060Z,7.43
2023-01-21T14:14:07.496Z,6.20
2023-01-21T14:17:22.056Z,7.22
2023-01-21T14:20:15.991Z,6.35
2023-01-21T14:23:07.983Z,6.20
2023-01-21T14:25:56.532Z,7.00
2023-01-21T14:28:49.259Z,6.45
2023-01-21T14:31:31.775Z,6.63
2023-01-21T14:34:14.577Z,6.05
2023-01-21T14:36:55.673Z,5.65
2023-01-21T14:39:33.301Z,5.93
2023-01-21T14:42:04.563Z,6.13
2023-01-21T14:44:40.277Z,6.28
2023-01-21T14:47:28.447Z,5.85
2023-01-21T14:49:59.918Z,5.68
2023-01-21T14:52:29.696Z,5.75
2023-01-21T14:55:01.028Z,5.15
2023-01-21T14:57:31.467Z,5.57
2023-01-21T15:00:12.784Z,6.70
2023-01-21T15:02:44.782Z,6.10
2023-01-21T15:05:35.824Z,5.75
2023-01-21T15:08:28.205Z,5.88
2023-01-21T15:11:04.203Z,5.50
2023-01-21T15:13:34.497Z,5.35
2023-01-21T15:16:05.023Z,5.05
2023-01-21T15:18:40.674Z,5.43
2023-01-21T15:21:47.053Z,5.33
2023-01-21T15:24:18.555Z,5.05
2023-01-21T15:27:12.990Z,4.43
2023-01-21T15:29:44.147Z,5.32
2023-01-21T15:32:31.118Z,4.18
2023-01-21T15:35:04.048Z,4.65
2023-01-21T15:37:38.520Z,4.47
2023-01-21T15:40:18.873Z,4.20
2023-01-21T15:43:14.523Z,4.07
2023-01-21T15:46:09.943Z,4.07
2023-01-21T15:49:02.297Z,3.95
2023-01-21T15:51:36.788Z,3.95
2023-01-21T15:54:14.570Z,4.15
2023-01-21T15:57:13.868Z,4.22
2023-01-21T15:59:43.555Z,3.80
2023-01-21T16:02:16.466Z,3.90
2023-01-21T16:05:12.001Z,3.50
2023-01-21T16:08:01.094Z,3.70
2023-01-21T16:10:35.899Z,3.60
2023-01-21T16:13:29.598Z,3.15
2023-01-21T16:16:27.620Z,4.18
2023-01-21T16:19:08.603Z,3.53
2023-01-21T16:21:40.143Z,4.13
2023-01-21T16:24:13.154Z,3.63
2023-01-21T16:26:40.387Z,3.60
2023-01-21T16:29:13.897Z,4.13
2023-01-21T16:31:52.407Z,4.32
2023-01-21T16:34:31.879Z,4.72
2023-01-21T16:37:02.399Z,4.97
2023-01-21T16:39:29.714Z,4.65
2023-01-21T16:42:05.685Z,4.10
2023-01-21T16:44:35.164Z,4.35
2023-01-21T16:47:03.474Z,3.83
2023-01-21T16:49:34.911Z,3.83
2023-01-21T16:52:03.453Z,4.40
2023-01-21T16:54:32.644Z,4.03
2023-01-21T16:57:00.963Z,3.72
2023-01-21T16:59:38.057Z,3.38
2023-01-21T17:02:11.485Z,3.90
2023-01-21T17:04:38.628Z,3.45
2023-01-21T17:07:06.292Z,3.30
2023-01-21T17:09:36.988Z,3.33
2023-01-21T17:12:18.072Z,3.40
2023-01-21T17:14:45.553Z,4.35
2023-01-21T17:17:21.765Z,5.18
2023-01-21T17:19:50.393Z,4.43
2023-01-21T17:22:22.404Z,3.75
2023-01-21T17:25:10.027Z,3.90
2023-01-21T17:27:41.864Z,3.97
2023-01-21T17:30:28.418Z,3.20
2023-01-21T17:33:00.153Z,3.15
2023-01-21T17:35:29.815Z,4.97
2023-01-21T17:38:08.116Z,3.38
2023-01-21T17:41:01.803Z,3.65
2023-01-21T17:43:31.325Z,3.65
2023-01-21T17:45:58.802Z,3.15
2023-01-21T17:48:27.770Z,4.40
2023-01-21T17:50:56.134Z,3.85
2023-01-21T17:53:28.576Z,3.55
2023-01-21T17:55:57.433Z,3.88
2023-01-21T17:58:48.381Z,4.40
2023-01-21T18:01:17.480Z,4.30
2023-01-21T18:03:44.769Z,4.47
2023-01-21T18:06:20.654Z,4.22
2023-01-21T18:08:50.904Z,4.65
2023-01-21T18:11:19.559Z,4.93
2023-01-21T18:13:47.545Z,4.30
2023-01-21T18:16:15.779Z,4.65
2023-01-21T18:18:43.355Z,5.10
2023-01-21T18:21:21.307Z,5.35
2023-01-21T18:23:50.467Z,4.97
2023-01-21T18:26:27.492Z,5.78
2023-01-21T18:28:55.595Z,5.03
2023-01-21T18:31:23.168Z,5.18
2023-01-21T18:33:51.281Z,4.68
2023-01-21T18:36:18.645Z,5.90
2023-01-21T18:38:46.083Z,5.82
2023-01-21T18:41:13.500Z,5.57
2023-01-21T18:43:41.882Z,5.57
2023-01-21T18:46:12.212Z,4.72
2023-01-21T18:48:39.758Z,5.10
2023-01-21T18:51:08.649Z,5.00
2023-01-21T18:53:38.181Z,4.57
2023-01-21T18:56:06.359Z,5.57
2023-01-21T18:58:36.196Z,4.72
2023-01-21T19:01:21.408Z,4.97
2023-01-21T19:03:52.505Z,4.60
2023-01-21T19:06:19.762Z,4.30
2023-01-21T19:08:48.682Z,4.72
2023-01-21T19:11:16.783Z,4.68
2023-01-21T19:13:46.106Z,3.85
2023-01-21T19:16:18.327Z,4.60
2023-01-21T19:18:45.605Z,4.18
2023-01-21T19:21:12.918Z,4.40
2023-01-21T19:23:40.405Z,4.72
2023-01-21T19:26:14.815Z,4.25
2023-01-21T19:28:44.267Z,4.38
2023-01-21T19:31:12.745Z,4.20
2023-01-21T19:33:42.775Z,4.95
2023-01-21T19:36:17.209Z,4.07
2023-01-21T19:38:51.423Z,4.03
2023-01-21T19:41:18.733Z,4.70
2023-01-21T19:43:46.265Z,3.95
2023-01-21T19:46:13.963Z,4.60
2023-01-21T19:48:41.497Z,3.78
2023-01-21T19:51:09.365Z,4.05
2023-01-21T19:53:40.103Z,4.07
2023-01-21T19:56:07.685Z,4.25
2023-01-21T19:58:39.528Z,5.00
2023-01-21T20:01:06.916Z,4.65
2023-01-21T20:03:34.261Z,4.97
2023-01-21T20:06:03.457Z,4.28
2023-01-21T20:08:32.264Z,3.97
2023-01-21T20:11:01.794Z,3.70
2023-01-21T20:13:32.251Z,4.22
2023-01-21T20:16:03.727Z,3.67
2023-01-21T20:18:33.731Z,3.67
2023-01-21T20:21:00.906Z,4.00
2023-01-21T20:23:29.085Z,3.80
2023-01-21T20:25:58.468Z,3.92
2023-01-21T20:28:33.316Z,3.45
2023-01-21T20:31:03.467Z,4.10
2023-01-21T20:33:34.597Z,3.75
2023-01-21T20:36:04.175Z,3.65
2023-01-21T20:38:37.451Z,3.65
2023-01-21T20:41:05.888Z,4.03
2023-01-21T20:43:35.710Z,3.70
2023-01-21T20:46:07.151Z,3.47
2023-01-21T20:48:41.544Z,3.65
2023-01-21T20:51:08.912Z,3.78
2023-01-21T20:53:37.309Z,3.72
2023-01-21T20:56:29.343Z,3.50
2023-01-21T20:58:56.874Z,3.88
2023-01-21T21:01:25.943Z,3.65
2023-01-21T21:03:53.180Z,3.60
2023-01-21T21:06:29.348Z,3.58
2023-01-21T21:08:59.102Z,3.60
2023-01-21T21:11:28.780Z,3.40
2023-01-21T21:13:56.441Z,3.80
2023-01-21T21:16:32.196Z,3.20
2023-01-21T21:19:04.377Z,3.70
2023-01-21T21:21:31.763Z,3.80
2023-01-21T21:24:02.263Z,3.28
2023-01-21T21:26:33.591Z,3.55
2023-01-21T21:29:01.080Z,3.83
2023-01-21T21:31:32.948Z,3.15
2023-01-21T21:34:00.321Z,3.95
2023-01-21T21:36:32.793Z,3.92
2023-01-21T21:39:00.154Z,3.88
2023-01-21T21:41:46.198Z,3.40
2023-01-21T21:44:15.944Z,3.97
2023-01-21T21:47:02.291Z,3.97
2023-01-21T21:49:32.353Z,3.80
2023-01-21T21:52:02.771Z,4.10
2023-01-21T21:54:32.015Z,4.03
2023-01-21T21:57:01.518Z,4.18
2023-01-21T21:59:29.656Z,3.80
2023-01-21T22:02:01.528Z,4.50
2023-01-21T22:04:28.713Z,3.90
2023-01-21T22:06:58.375Z,3.78
2023-01-21T22:09:25.602Z,3.83
2023-01-21T22:11:55.084Z,4.22
2023-01-21T22:14:26.852Z,3.50
2023-01-21T22:16:56.449Z,4.20
2023-01-21T22:19:23.959Z,4.28
2023-01-21T22:21:53.655Z,4.60
2023-01-21T22:24:23.247Z,3.92
2023-01-21T22:26:50.439Z,3.90
2023-01-21T22:29:20.061Z,4.32
2023-01-21T22:31:47.449Z,4.13
2023-01-21T22:34:14.870Z,4.30
2023-01-21T22:36:46.966Z,4.57
2023-01-21T22:39:14.263Z,4.30
2023-01-21T22:41:41.454Z,4.05
2023-01-21T22:44:10.093Z,4.00
2023-01-21T22:46:38.353Z,4.00
2023-01-21T22:49:06.499Z,3.97
2023-01-21T22:51:36.418Z,3.67
2023-01-21T22:54:03.620Z,4.10
2023-01-21T22:56:50.525Z,4.32
2023-01-21T22:59:21.444Z,4.07
2023-01-21T23:01:51.211Z,3.92
2023-01-21T23:04:18.697Z,4.25
2023-01-21T23:06:51.136Z,4.25
2023-01-21T23:09:18.482Z,4.00
2023-01-21T23:11:52.784Z,4.18
2023-01-21T23:14:20.182Z,3.95
2023-01-21T23:16:47.542Z,3.97
2023-01-21T23:19:15.052Z,4.03
2023-01-21T23:21:43.559Z,4.30
2023-01-21T23:24:12.597Z,4.47
2023-01-21T23:26:39.952Z,4.30
2023-01-21T23:29:09.645Z,4.00
2023-01-21T23:31:39.125Z,4.20
2023-01-21T23:34:06.462Z,3.70
2023-01-21T23:36:33.580Z,3.67
2023-01-21T23:39:00.914Z,3.45
2023-01-21T23:41:28.313Z,4.18
2023-01-21T23:43:59.653Z,3.78
2023-01-21T23:46:27.143Z,3.83
2023-01-21T23:48:54.405Z,3.97
2023-01-21T23:51:23.464Z,3.67
2023-01-21T23:53:50.799Z,3.85
2023-01-21T23:56:22.177Z,4.05
2023-01-21T23:58:50.654Z,4.15
